sensor_id;sensor_type;location;lat;lon;timestamp;pressure;altitude;pressure_sealevel;temperature;humidity
48796;BME280;34607;48.520;-1.330;2023-08-01T06:34:53;99467.41;;;16.95;100.00
48796;BME280;34607;48.520;-1.330;2023-08-01T06:37:20;99469.66;;;17.11;100.00
48796;BME280;34607;48.520;-1.330;2023-08-01T06:39:47;99472.22;;;17.14;100.00
48796;BME280;34607;48.520;-1.330;2023-08-01T06:42:14;99466.97;;;17.14;100.00
48796;BME280;34607;48.520;-1.330;2023-08-01T06:44:42;99465.19;;;17.16;100.00
48796;BME280;34607;48.520;-1.330;2023-08-01T06:47:09;99465.88;;;17.22;100.00
48796;BME280;34607;48.520;-1.330;2023-08-01T06:49:36;99481.28;;;17.35;100.00
48796;BME280;34607;48.520;-1.330;2023-08-01T06:52:05;99471.50;;;17.41;100.00
48796;BME280;34607;48.520;-1.330;2023-08-01T06:54:32;99473.94;;;17.48;100.00
48796;BME280;34607;48.520;-1.330;2023-08-01T06:56:59;99480.03;;;17.50;100.00
48796;BME280;34607;48.520;-1.330;2023-08-01T06:59:26;99474.75;;;17.51;100.00
48796;BME280;34607;48.520;-1.330;2023-08-01T07:01:53;99471.19;;;17.54;100.00
48796;BME280;34607;48.520;-1.330;2023-08-01T07:04:20;99484.56;;;17.43;100.00
48796;BME280;34607;48.520;-1.330;2023-08-01T07:06:47;99488.16;;;17.37;100.00
48796;BME280;34607;48.520;-1.330;2023-08-01T07:09:16;99487.22;;;17.41;100.00
48796;BME280;34607;48.520;-1.330;2023-08-01T07:11:43;99487.22;;;17.41;100.00
48796;BME280;34607;48.520;-1.330;2023-08-01T07:14:10;99485.47;;;17.40;100.00
48796;BME280;34607;48.520;-1.330;2023-08-01T07:16:37;99480.09;;;17.47;100.00
48796;BME280;34607;48.520;-1.330;2023-08-01T07:19:04;99492.19;;;17.51;100.00
48796;BME280;34607;48.520;-1.330;2023-08-01T07:21:31;99496.72;;;17.44;100.00
48796;BME280;34607;48.520;-1.330;2023-08-01T07:23:58;99493.94;;;17.52;100.00
48796;BME280;34607;48.520;-1.330;2023-08-01T07:26:26;99497.94;;;17.65;100.00
48796;BME280;34607;48.520;-1.330;2023-08-01T07:28:54;99500.47;;;17.68;100.00
48796;BME280;34607;48.520;-1.330;2023-08-01T07:31:23;99502.34;;;17.63;100.00
48796;BME280;34607;48.520;-1.330;2023-08-01T07:33:50;99487.78;;;17.53;100.00
48796;BME280;34607;48.520;-1.330;2023-08-01T07:36:17;99493.94;;;17.52;100.00
48796;BME280;34607;48.520;-1.330;2023-08-01T07:38:44;99496.81;;;17.41;100.00
48796;BME280;34607;48.520;-1.330;2023-08-01T07:41:12;99497.69;;;17.41;100.00
48796;BME280;34607;48.520;-1.330;2023-08-01T07:43:40;99494.88;;;17.48;100.00
48796;BME280;34607;48.520;-1.330;2023-08-01T07:46:07;99489.91;;;17.71;100.00
48796;BME280;34607;48.520;-1.330;2023-08-01T07:48:35;99491.00;;;17.97;100.00
48796;BME280;34607;48.520;-1.330;2023-08-01T07:51:02;99489.66;;;18.13;100.00
48796;BME280;34607;48.520;-1.330;2023-08-01T07:53:31;99487.78;;;18.19;100.00
48796;BME280;34607;48.520;-1.330;2023-08-01T07:55:58;99494.38;;;18.32;100.00
48796;BME280;34607;48.520;-1.330;2023-08-01T07:58:27;99493.09;;;18.45;100.00
48796;BME280;34607;48.520;-1.330;2023-08-01T08:00:56;99501.78;;;18.47;100.00
48796;BME280;34607;48.520;-1.330;2023-08-01T08:03:23;99495.25;;;18.61;100.00
48796;BME280;34607;48.520;-1.330;2023-08-01T08:05:50;99494.53;;;18.85;100.00
48796;BME280;34607;48.520;-1.330;2023-08-01T08:08:17;99487.75;;;19.06;100.00
48796;BME280;34607;48.520;-1.330;2023-08-01T08:10:44;99481.66;;;19.31;100.00
48796;BME280;34607;48.520;-1.330;2023-08-01T08:13:11;99476.28;;;19.36;100.00
48796;BME280;34607;48.520;-1.330;2023-08-01T08:15:38;99486.59;;;19.42;100.00
48796;BME280;34607;48.520;-1.330;2023-08-01T08:18:06;99483.47;;;19.56;100.00
48796;BME280;34607;48.520;-1.330;2023-08-01T08:20:41;99478.94;;;19.61;100.00
48796;BME280;34607;48.520;-1.330;2023-08-01T08:23:08;99473.75;;;19.85;100.00
48796;BME280;34607;48.520;-1.330;2023-08-01T08:25:35;99476.94;;;19.93;100.00
48796;BME280;34607;48.520;-1.330;2023-08-01T08:28:02;99477.75;;;19.95;100.00
48796;BME280;34607;48.520;-1.330;2023-08-01T08:30:29;99472.69;;;20.14;100.00
48796;BME280;34607;48.520;-1.330;2023-08-01T08:32:57;99483.09;;;20.17;97.96
48796;BME280;34607;48.520;-1.330;2023-08-01T08:35:27;99473.47;;;20.16;97.75
48796;BME280;34607;48.520;-1.330;2023-08-01T08:37:54;99470.78;;;20.41;98.22
48796;BME280;34607;48.520;-1.330;2023-08-01T08:40:21;99467.41;;;20.59;97.11
48796;BME280;34607;48.520;-1.330;2023-08-01T08:42:49;99472.53;;;20.64;95.73
48796;BME280;34607;48.520;-1.330;2023-08-01T08:45:19;99469.69;;;20.23;95.88
48796;BME280;34607;48.520;-1.330;2023-08-01T08:47:55;99475.41;;;20.34;95.29
48796;BME280;34607;48.520;-1.330;2023-08-01T08:50:22;99475.47;;;20.33;95.91
48796;BME280;34607;48.520;-1.330;2023-08-01T08:52:51;99470.78;;;20.17;95.89
48796;BME280;34607;48.520;-1.330;2023-08-01T08:55:19;99484.75;;;19.94;95.86
48796;BME280;34607;48.520;-1.330;2023-08-01T08:57:49;99495.28;;;19.94;97.51
48796;BME280;34607;48.520;-1.330;2023-08-01T09:00:18;99489.56;;;19.83;96.61
48796;BME280;34607;48.520;-1.330;2023-08-01T09:02:45;99494.88;;;19.81;96.34
48796;BME280;34607;48.520;-1.330;2023-08-01T09:05:12;99505.78;;;19.94;96.83
48796;BME280;34607;48.520;-1.330;2023-08-01T09:07:42;99506.53;;;19.73;95.05
48796;BME280;34607;48.520;-1.330;2023-08-01T09:10:13;99517.03;;;19.73;95.79
48796;BME280;34607;48.520;-1.330;2023-08-01T09:12:40;99510.84;;;19.74;96.04
48796;BME280;34607;48.520;-1.330;2023-08-01T09:15:08;99502.91;;;19.77;96.55
48796;BME280;34607;48.520;-1.330;2023-08-01T09:17:48;99521.34;;;19.75;95.60
48796;BME280;34607;48.520;-1.330;2023-08-01T09:20:15;99517.03;;;19.74;96.30
48796;BME280;34607;48.520;-1.330;2023-08-01T09:22:43;99520.16;;;19.84;96.64
48796;BME280;34607;48.520;-1.330;2023-08-01T09:25:10;99518.47;;;19.83;95.53
48796;BME280;34607;48.520;-1.330;2023-08-01T09:27:39;99518.88;;;19.71;96.03
48796;BME280;34607;48.520;-1.330;2023-08-01T09:30:10;99514.25;;;19.52;95.43
48796;BME280;34607;48.520;-1.330;2023-08-01T09:32:39;99518.38;;;19.59;96.77
48796;BME280;34607;48.520;-1.330;2023-08-01T09:35:06;99514.66;;;19.65;97.77
48796;BME280;34607;48.520;-1.330;2023-08-01T09:37:38;99517.13;;;19.70;96.99
48796;BME280;34607;48.520;-1.330;2023-08-01T09:40:07;99517.56;;;19.57;96.20
48796;BME280;34607;48.520;-1.330;2023-08-01T09:42:39;99508.88;;;19.55;96.74
48796;BME280;34607;48.520;-1.330;2023-08-01T09:45:12;99508.38;;;19.71;96.80
48796;BME280;34607;48.520;-1.330;2023-08-01T09:47:40;99517.03;;;19.73;98.02
48796;BME280;34607;48.520;-1.330;2023-08-01T09:50:09;99520.44;;;19.76;97.53
48796;BME280;34607;48.520;-1.330;2023-08-01T09:52:37;99524.72;;;19.79;97.20
48796;BME280;34607;48.520;-1.330;2023-08-01T09:55:05;99519.16;;;19.61;96.88
48796;BME280;34607;48.520;-1.330;2023-08-01T09:57:32;99521.09;;;19.56;97.92
48796;BME280;34607;48.520;-1.330;2023-08-01T10:00:05;99517.47;;;19.60;98.00
48796;BME280;34607;48.520;-1.330;2023-08-01T10:02:38;99518.00;;;19.70;97.85
48796;BME280;34607;48.520;-1.330;2023-08-01T10:05:09;99519.59;;;19.76;96.54
48796;BME280;34607;48.520;-1.330;2023-08-01T10:07:38;99518.88;;;19.71;95.47
48796;BME280;34607;48.520;-1.330;2023-08-01T10:10:09;99509.25;;;19.70;96.59
48796;BME280;34607;48.520;-1.330;2023-08-01T10:12:37;99521.94;;;19.83;96.88
48796;BME280;34607;48.520;-1.330;2023-08-01T10:15:07;99506.97;;;19.86;96.85
48796;BME280;34607;48.520;-1.330;2023-08-01T10:17:35;99504.31;;;19.87;97.50
48796;BME280;34607;48.520;-1.330;2023-08-01T10:20:03;99495.28;;;19.94;96.92
48796;BME280;34607;48.520;-1.330;2023-08-01T10:22:31;99498.50;;;20.02;97.19
48796;BME280;34607;48.520;-1.330;2023-08-01T10:24:58;99500.72;;;19.90;97.13
48796;BME280;34607;48.520;-1.330;2023-08-01T10:27:26;99497.25;;;19.88;98.04
48796;BME280;34607;48.520;-1.330;2023-08-01T10:29:56;99496.31;;;19.90;97.01
48796;BME280;34607;48.520;-1.330;2023-08-01T10:32:31;99494.22;;;20.00;97.35
48796;BME280;34607;48.520;-1.330;2023-08-01T10:34:58;99478.72;;;20.16;97.63
48796;BME280;34607;48.520;-1.330;2023-08-01T10:37:25;99504.84;;;20.44;96.18
48796;BME280;34607;48.520;-1.330;2023-08-01T10:39:59;99496.88;;;20.46;95.50
48796;BME280;34607;48.520;-1.330;2023-08-01T10:42:37;99494.94;;;20.51;94.95
48796;BME280;34607;48.520;-1.330;2023-08-01T10:45:05;99494.47;;;20.41;96.38
48796;BME280;34607;48.520;-1.330;2023-08-01T10:47:33;99496.47;;;20.34;95.88
48796;BME280;34607;48.520;-1.330;2023-08-01T10:50:00;99491.56;;;20.24;96.48
48796;BME280;34607;48.520;-1.330;2023-08-01T10:52:28;99501.66;;;20.36;96.26
48796;BME280;34607;48.520;-1.330;2023-08-01T10:54:57;99514.13;;;20.31;95.91
48796;BME280;34607;48.520;-1.330;2023-08-01T10:57:28;99511.88;;;20.20;95.46
48796;BME280;34607;48.520;-1.330;2023-08-01T10:59:56;99519.13;;;20.13;96.23
48796;BME280;34607;48.520;-1.330;2023-08-01T11:02:25;99507.16;;;20.05;96.52
48796;BME280;34607;48.520;-1.330;2023-08-01T11:04:57;99502.78;;;20.05;96.92
48796;BME280;34607;48.520;-1.330;2023-08-01T11:07:25;99502.09;;;20.00;97.43
48796;BME280;34607;48.520;-1.330;2023-08-01T11:10:06;99498.38;;;20.06;96.96
48796;BME280;34607;48.520;-1.330;2023-08-01T11:12:35;99492.97;;;20.10;96.91
48796;BME280;34607;48.520;-1.330;2023-08-01T11:15:04;99499.66;;;20.19;97.47
48796;BME280;34607;48.520;-1.330;2023-08-01T11:17:31;99494.16;;;20.25;98.44
48796;BME280;34607;48.520;-1.330;2023-08-01T11:20:05;99497.19;;;20.14;96.48
48796;BME280;34607;48.520;-1.330;2023-08-01T11:22:32;99490.16;;;20.15;97.65
48796;BME280;34607;48.520;-1.330;2023-08-01T11:25:00;99496.50;;;20.09;97.62
48796;BME280;34607;48.520;-1.330;2023-08-01T11:27:27;99493.81;;;20.11;97.86
48796;BME280;34607;48.520;-1.330;2023-08-01T11:29:55;99491.19;;;20.11;97.44
48796;BME280;34607;48.520;-1.330;2023-08-01T11:32:32;99491.13;;;20.12;96.52
48796;BME280;34607;48.520;-1.330;2023-08-01T11:35:00;99491.78;;;20.19;97.15
48796;BME280;34607;48.520;-1.330;2023-08-01T11:37:29;99484.72;;;20.19;97.42
48796;BME280;34607;48.520;-1.330;2023-08-01T11:39:56;99487.31;;;20.21;96.81
48796;BME280;34607;48.520;-1.330;2023-08-01T11:42:24;99474.22;;;20.19;97.70
48796;BME280;34607;48.520;-1.330;2023-08-01T11:44:51;99479.88;;;20.32;97.32
48796;BME280;34607;48.520;-1.330;2023-08-01T11:47:19;99458.84;;;20.32;96.94
48796;BME280;34607;48.520;-1.330;2023-08-01T11:49:46;99476.59;;;20.49;96.59
48796;BME280;34607;48.520;-1.330;2023-08-01T11:52:24;99480.31;;;20.44;96.30
48796;BME280;34607;48.520;-1.330;2023-08-01T11:54:52;99480.63;;;20.36;96.63
48796;BME280;34607;48.520;-1.330;2023-08-01T11:57:20;99486.09;;;20.30;96.89
48796;BME280;34607;48.520;-1.330;2023-08-01T11:59:48;99489.19;;;20.17;96.65
48796;BME280;34607;48.520;-1.330;2023-08-01T12:02:26;99487.41;;;20.18;96.78
48796;BME280;34607;48.520;-1.330;2023-08-01T12:04:54;99457.72;;;20.16;97.42
48796;BME280;34607;48.520;-1.330;2023-08-01T12:07:21;99477.31;;;20.31;96.66
48796;BME280;34607;48.520;-1.330;2023-08-01T12:10:00;99474.06;;;20.24;96.06
48796;BME280;34607;48.520;-1.330;2023-08-01T12:12:28;99477.25;;;20.09;97.33
48796;BME280;34607;48.520;-1.330;2023-08-01T12:14:55;99477.75;;;19.95;97.58
48796;BME280;34607;48.520;-1.330;2023-08-01T12:17:22;99461.56;;;19.82;97.59
48796;BME280;34607;48.520;-1.330;2023-08-01T12:19:49;99464.19;;;19.82;97.78
48796;BME280;34607;48.520;-1.330;2023-08-01T12:22:16;99460.56;;;19.86;98.67
48796;BME280;34607;48.520;-1.330;2023-08-01T12:24:44;99451.97;;;20.05;99.32
48796;BME280;34607;48.520;-1.330;2023-08-01T12:27:12;99446.03;;;20.23;98.31
48796;BME280;34607;48.520;-1.330;2023-08-01T12:29:40;99447.28;;;20.36;98.09
48796;BME280;34607;48.520;-1.330;2023-08-01T12:32:08;99446.69;;;20.52;97.50
48796;BME280;34607;48.520;-1.330;2023-08-01T12:34:35;99449.81;;;20.62;97.73
48796;BME280;34607;48.520;-1.330;2023-08-01T12:37:02;99453.50;;;20.80;97.79
48796;BME280;34607;48.520;-1.330;2023-08-01T12:39:29;99461.97;;;20.88;96.14
48796;BME280;34607;48.520;-1.330;2023-08-01T12:41:56;99462.69;;;20.91;96.22
48796;BME280;34607;48.520;-1.330;2023-08-01T12:44:24;99457.31;;;20.94;95.86
48796;BME280;34607;48.520;-1.330;2023-08-01T12:46:51;99460.13;;;20.90;96.40
48796;BME280;34607;48.520;-1.330;2023-08-01T12:49:18;99453.00;;;20.92;96.90
48796;BME280;34607;48.520;-1.330;2023-08-01T12:51:46;99453.16;;;20.89;96.65
48796;BME280;34607;48.520;-1.330;2023-08-01T12:54:13;99462.41;;;20.77;96.57
48796;BME280;34607;48.520;-1.330;2023-08-01T12:56:40;99455.63;;;20.48;96.49
48796;BME280;34607;48.520;-1.330;2023-08-01T12:59:07;99452.56;;;20.36;97.74
48796;BME280;34607;48.520;-1.330;2023-08-01T13:01:35;99442.19;;;20.32;97.52
48796;BME280;34607;48.520;-1.330;2023-08-01T13:04:03;99452.56;;;20.36;97.49
48796;BME280;34607;48.520;-1.330;2023-08-01T13:06:30;99456.53;;;20.47;96.65
48796;BME280;34607;48.520;-1.330;2023-08-01T13:08:57;99455.44;;;20.52;96.29
48796;BME280;34607;48.520;-1.330;2023-08-01T13:11:25;99459.06;;;20.50;95.60
48796;BME280;34607;48.520;-1.330;2023-08-01T13:13:52;99465.03;;;20.53;96.04
48796;BME280;34607;48.520;-1.330;2023-08-01T13:16:19;99464.25;;;20.51;95.77
48796;BME280;34607;48.520;-1.330;2023-08-01T13:18:47;99469.22;;;20.35;96.53
48796;BME280;34607;48.520;-1.330;2023-08-01T13:21:15;99468.06;;;20.20;98.74
48796;BME280;34607;48.520;-1.330;2023-08-01T13:23:42;99457.88;;;20.11;99.28
48796;BME280;34607;48.520;-1.330;2023-08-01T13:26:09;99465.38;;;20.22;99.88
48796;BME280;34607;48.520;-1.330;2023-08-01T13:28:36;99459.66;;;20.34;99.56
48796;BME280;34607;48.520;-1.330;2023-08-01T13:31:03;99462.97;;;20.39;100.00
48796;BME280;34607;48.520;-1.330;2023-08-01T13:33:30;99453.22;;;20.42;100.00
48796;BME280;34607;48.520;-1.330;2023-08-01T13:35:58;99457.81;;;20.36;100.00
48796;BME280;34607;48.520;-1.330;2023-08-01T13:38:25;99450.16;;;20.30;100.00
48796;BME280;34607;48.520;-1.330;2023-08-01T13:40:52;99457.59;;;20.19;100.00
48796;BME280;34607;48.520;-1.330;2023-08-01T13:43:19;99459.91;;;20.27;100.00
48796;BME280;34607;48.520;-1.330;2023-08-01T13:45:46;99449.59;;;20.22;100.00
48796;BME280;34607;48.520;-1.330;2023-08-01T13:48:13;99447.81;;;20.23;100.00
48796;BME280;34607;48.520;-1.330;2023-08-01T13:50:40;99447.34;;;20.35;100.00
48796;BME280;34607;48.520;-1.330;2023-08-01T13:53:09;99443.19;;;20.29;100.00
48796;BME280;34607;48.520;-1.330;2023-08-01T13:55:39;99440.03;;;20.19;100.00
48796;BME280;34607;48.520;-1.330;2023-08-01T13:58:06;99441.81;;;20.19;100.00
48796;BME280;34607;48.520;-1.330;2023-08-01T14:00:33;99445.19;;;20.23;100.00
48796;BME280;34607;48.520;-1.330;2023-08-01T14:03:00;99440.72;;;20.25;100.00
48796;BME280;34607;48.520;-1.330;2023-08-01T14:05:28;99462.13;;;20.15;100.00
48796;BME280;34607;48.520;-1.330;2023-08-01T14:07:55;99472.75;;;20.12;100.00
48796;BME280;34607;48.520;-1.330;2023-08-01T14:10:23;99457.38;;;20.01;100.00
48796;BME280;34607;48.520;-1.330;2023-08-01T14:12:50;99446.50;;;19.87;100.00
48796;BME280;34607;48.520;-1.330;2023-08-01T14:15:17;99446.72;;;20.05;100.00
48796;BME280;34607;48.520;-1.330;2023-08-01T14:17:44;99459.75;;;20.08;100.00
48796;BME280;34607;48.520;-1.330;2023-08-01T14:20:12;99465.38;;;19.98;100.00
48796;BME280;34607;48.520;-1.330;2023-08-01T14:22:41;99464.69;;;19.93;100.00
48796;BME280;34607;48.520;-1.330;2023-08-01T14:25:08;99455.31;;;19.86;100.00
48796;BME280;34607;48.520;-1.330;2023-08-01T14:27:37;99428.25;;;19.82;100.00
48796;BME280;34607;48.520;-1.330;2023-08-01T14:30:05;99443.75;;;19.90;100.00
48796;BME280;34607;48.520;-1.330;2023-08-01T14:32:32;99453.47;;;19.88;100.00
48796;BME280;34607;48.520;-1.330;2023-08-01T14:34:59;99443.75;;;19.90;100.00
48796;BME280;34607;48.520;-1.330;2023-08-01T14:37:26;99453.69;;;19.82;100.00
48796;BME280;34607;48.520;-1.330;2023-08-01T14:39:55;99460.56;;;19.86;100.00
48796;BME280;34607;48.520;-1.330;2023-08-01T14:42:22;99458.09;;;19.81;100.00
48796;BME280;34607;48.520;-1.330;2023-08-01T14:44:53;99450.44;;;19.74;100.00
48796;BME280;34607;48.520;-1.330;2023-08-01T14:47:20;99444.34;;;19.73;100.00
48796;BME280;34607;48.520;-1.330;2023-08-01T14:49:48;99440.28;;;19.64;100.00
48796;BME280;34607;48.520;-1.330;2023-08-01T14:52:15;99436.97;;;19.59;100.00
48796;BME280;34607;48.520;-1.330;2023-08-01T14:54:42;99422.09;;;19.58;100.00
48796;BME280;34607;48.520;-1.330;2023-08-01T14:57:09;99435.03;;;19.64;100.00
48796;BME280;34607;48.520;-1.330;2023-08-01T14:59:36;99434.53;;;19.53;100.00
48796;BME280;34607;48.520;-1.330;2023-08-01T15:02:05;99433.72;;;19.51;100.00
48796;BME280;34607;48.520;-1.330;2023-08-01T15:04:33;99426.88;;;19.47;100.00
48796;BME280;34607;48.520;-1.330;2023-08-01T15:07:01;99409.84;;;19.34;100.00
48796;BME280;34607;48.520;-1.330;2023-08-01T15:09:29;99410.75;;;19.33;100.00
48796;BME280;34607;48.520;-1.330;2023-08-01T15:11:56;99403.69;;;19.35;100.00
48796;BME280;34607;48.520;-1.330;2023-08-01T15:14:23;99406.09;;;19.41;100.00
48796;BME280;34607;48.520;-1.330;2023-08-01T15:16:50;99411.97;;;19.22;100.00
48796;BME280;34607;48.520;-1.330;2023-08-01T15:19:19;99404.53;;;19.10;100.00
48796;BME280;34607;48.520;-1.330;2023-08-01T15:21:46;99395.81;;;19.09;100.00
48796;BME280;34607;48.520;-1.330;2023-08-01T15:24:13;99382.41;;;19.17;100.00
48796;BME280;34607;48.520;-1.330;2023-08-01T15:26:40;99372.97;;;19.12;100.00
48796;BME280;34607;48.520;-1.330;2023-08-01T15:29:07;99380.75;;;19.15;100.00
48796;BME280;34607;48.520;-1.330;2023-08-01T15:31:34;99377.38;;;19.11;100.00
48796;BME280;34607;48.520;-1.330;2023-08-01T15:34:02;99367.94;;;19.05;100.00
48796;BME280;34607;48.520;-1.330;2023-08-01T15:36:30;99372.13;;;19.11;100.00
48796;BME280;34607;48.520;-1.330;2023-08-01T15:38:57;99368.13;;;19.01;100.00
48796;BME280;34607;48.520;-1.330;2023-08-01T15:41:24;99366.63;;;18.94;100.00
48796;BME280;34607;48.520;-1.330;2023-08-01T15:43:51;99369.25;;;18.94;100.00
48796;BME280;34607;48.520;-1.330;2023-08-01T15:46:19;99368.25;;;18.96;100.00
48796;BME280;34607;48.520;-1.330;2023-08-01T15:48:46;99379.94;;;18.87;100.00
48796;BME280;34607;48.520;-1.330;2023-08-01T15:51:13;99381.75;;;18.85;100.00
48796;BME280;34607;48.520;-1.330;2023-08-01T15:53:41;99373.97;;;18.82;100.00
48796;BME280;34607;48.520;-1.330;2023-08-01T15:56:08;99373.94;;;18.84;100.00
48796;BME280;34607;48.520;-1.330;2023-08-01T15:58:36;99350.44;;;18.79;100.00
48796;BME280;34607;48.520;-1.330;2023-08-01T16:01:03;99334.31;;;18.65;100.00
48796;BME280;34607;48.520;-1.330;2023-08-01T16:03:32;99354.88;;;18.77;100.00
48796;BME280;34607;48.520;-1.330;2023-08-01T16:05:59;99336.53;;;18.77;100.00
48796;BME280;34607;48.520;-1.330;2023-08-01T16:08:26;99342.94;;;18.68;100.00
48796;BME280;34607;48.520;-1.330;2023-08-01T16:10:54;99356.66;;;18.77;100.00
48796;BME280;34607;48.520;-1.330;2023-08-01T16:13:21;99352.25;;;18.77;100.00
48796;BME280;34607;48.520;-1.330;2023-08-01T16:15:49;99355.47;;;18.59;100.00
48796;BME280;34607;48.520;-1.330;2023-08-01T16:18:16;99368.59;;;18.59;100.00
48796;BME280;34607;48.520;-1.330;2023-08-01T16:20:43;99361.69;;;18.56;100.00
48796;BME280;34607;48.520;-1.330;2023-08-01T16:23:10;99358.31;;;18.52;100.00
48796;BME280;34607;48.520;-1.330;2023-08-01T16:25:38;99339.31;;;18.46;100.00
48796;BME280;34607;48.520;-1.330;2023-08-01T16:28:06;99339.53;;;18.38;100.00
48796;BME280;34607;48.520;-1.330;2023-08-01T16:30:34;99339.53;;;18.38;100.00
48796;BME280;34607;48.520;-1.330;2023-08-01T16:33:02;99338.78;;;18.34;100.00
48796;BME280;34607;48.520;-1.330;2023-08-01T16:35:31;99342.47;;;18.29;100.00
48796;BME280;34607;48.520;-1.330;2023-08-01T16:37:59;99343.16;;;18.34;100.00
48796;BME280;34607;48.520;-1.330;2023-08-01T16:40:26;99348.50;;;18.31;100.00
48796;BME280;34607;48.520;-1.330;2023-08-01T16:42:53;99334.88;;;18.20;100.00
48796;BME280;34607;48.520;-1.330;2023-08-01T16:45:22;99338.38;;;18.20;100.00
48796;BME280;34607;48.520;-1.330;2023-08-01T16:47:49;99335.50;;;18.28;100.00
48796;BME280;34607;48.520;-1.330;2023-08-01T16:50:17;99334.38;;;18.35;100.00
48796;BME280;34607;48.520;-1.330;2023-08-01T16:52:45;99328.16;;;18.39;100.00
48796;BME280;34607;48.520;-1.330;2023-08-01T16:55:12;99329.16;;;18.35;100.00
48796;BME280;34607;48.520;-1.330;2023-08-01T16:57:40;99312.53;;;18.36;100.00
48796;BME280;34607;48.520;-1.330;2023-08-01T17:00:08;99322.97;;;18.38;100.00
48796;BME280;34607;48.520;-1.330;2023-08-01T17:02:37;99303.19;;;18.27;100.00
48796;BME280;34607;48.520;-1.330;2023-08-01T17:05:05;99310.22;;;18.27;100.00
48796;BME280;34607;48.520;-1.330;2023-08-01T17:07:33;99298.19;;;18.20;100.00
48796;BME280;34607;48.520;-1.330;2023-08-01T17:10:01;99279.97;;;18.17;100.00
48796;BME280;34607;48.520;-1.330;2023-08-01T17:12:28;99306.84;;;18.23;100.00
48796;BME280;34607;48.520;-1.330;2023-08-01T17:14:55;99306.16;;;18.17;100.00
48796;BME280;34607;48.520;-1.330;2023-08-01T17:17:22;99301.81;;;18.15;100.00
48796;BME280;34607;48.520;-1.330;2023-08-01T17:19:51;99297.34;;;18.19;100.00
48796;BME280;34607;48.520;-1.330;2023-08-01T17:22:18;99292.13;;;18.18;100.00
48796;BME280;34607;48.520;-1.330;2023-08-01T17:24:45;99292.31;;;18.13;100.00
48796;BME280;34607;48.520;-1.330;2023-08-01T17:27:12;99288.69;;;18.17;100.00
48796;BME280;34607;48.520;-1.330;2023-08-01T17:29:39;99279.22;;;18.13;100.00
48796;BME280;34607;48.520;-1.330;2023-08-01T17:32:06;99275.41;;;17.95;100.00
48796;BME280;34607;48.520;-1.330;2023-08-01T17:34:33;99286.75;;;17.94;100.00
48796;BME280;34607;48.520;-1.330;2023-08-01T17:37:02;99280.06;;;17.84;100.00
48796;BME280;34607;48.520;-1.330;2023-08-01T17:39:30;99278.19;;;17.89;100.00
48796;BME280;34607;48.520;-1.330;2023-08-01T17:41:57;99290.34;;;17.91;100.00
48796;BME280;34607;48.520;-1.330;2023-08-01T17:44:26;99286.22;;;17.83;100.00
48796;BME280;34607;48.520;-1.330;2023-08-01T17:46:53;99279.25;;;17.82;100.00
48796;BME280;34607;48.520;-1.330;2023-08-01T17:49:20;99274.22;;;17.75;100.00
48796;BME280;34607;48.520;-1.330;2023-08-01T17:51:47;99276.84;;;17.75;100.00
48796;BME280;34607;48.520;-1.330;2023-08-01T17:54:15;99280.41;;;17.73;100.00
48796;BME280;34607;48.520;-1.330;2023-08-01T17:56:42;99272.41;;;17.77;100.00
48796;BME280;34607;48.520;-1.330;2023-08-01T17:59:09;99266.72;;;17.63;100.00
48796;BME280;34607;48.520;-1.330;2023-08-01T18:01:38;99255.28;;;17.67;100.00
48796;BME280;34607;48.520;-1.330;2023-08-01T18:04:05;99241.94;;;17.75;100.00
48796;BME280;34607;48.520;-1.330;2023-08-01T18:06:33;99222.13;;;17.66;100.00
48796;BME280;34607;48.520;-1.330;2023-08-01T18:09:00;99254.75;;;17.84;100.00
48796;BME280;34607;48.520;-1.330;2023-08-01T18:11:28;99244.47;;;17.78;100.00
48796;BME280;34607;48.520;-1.330;2023-08-01T18:13:56;99244.50;;;17.76;100.00
48796;BME280;34607;48.520;-1.330;2023-08-01T18:16:25;99244.72;;;17.70;100.00
48796;BME280;34607;48.520;-1.330;2023-08-01T18:18:53;99248.94;;;17.74;100.00
48796;BME280;34607;48.520;-1.330;2023-08-01T18:21:20;99231.66;;;17.69;100.00
48796;BME280;34607;48.520;-1.330;2023-08-01T18:23:47;99223.91;;;17.66;100.00
48796;BME280;34607;48.520;-1.330;2023-08-01T18:26:17;99204.28;;;17.51;100.00
48796;BME280;34607;48.520;-1.330;2023-08-01T18:28:46;99204.91;;;17.59;100.00
48796;BME280;34607;48.520;-1.330;2023-08-01T18:31:14;99202.38;;;17.56;100.00
48796;BME280;34607;48.520;-1.330;2023-08-01T18:33:41;99195.22;;;17.61;100.00
48796;BME280;34607;48.520;-1.330;2023-08-01T18:36:11;99182.22;;;17.58;100.00
48796;BME280;34607;48.520;-1.330;2023-08-01T18:38:39;99192.09;;;17.50;100.00
48796;BME280;34607;48.520;-1.330;2023-08-01T18:41:06;99186.91;;;17.48;100.00
48796;BME280;34607;48.520;-1.330;2023-08-01T18:43:33;99190.22;;;17.55;100.00
48796;BME280;34607;48.520;-1.330;2023-08-01T18:46:04;99191.91;;;17.56;100.00
48796;BME280;34607;48.520;-1.330;2023-08-01T18:48:32;99173.78;;;17.50;100.00
48796;BME280;34607;48.520;-1.330;2023-08-01T18:51:00;99156.84;;;17.33;100.00
48796;BME280;34607;48.520;-1.330;2023-08-01T18:53:27;99176.50;;;17.47;100.00
48796;BME280;34607;48.520;-1.330;2023-08-01T18:56:04;99185.16;;;17.49;100.00
48796;BME280;34607;48.520;-1.330;2023-08-01T18:58:31;99168.91;;;17.37;100.00
48796;BME280;34607;48.520;-1.330;2023-08-01T19:00:58;99171.00;;;17.26;100.00
48796;BME280;34607;48.520;-1.330;2023-08-01T19:03:27;99170.16;;;17.26;100.00
48796;BME280;34607;48.520;-1.330;2023-08-01T19:05:53;99173.53;;;17.29;100.00
48796;BME280;34607;48.520;-1.330;2023-08-01T19:08:23;99176.25;;;17.26;100.00
48796;BME280;34607;48.520;-1.330;2023-08-01T19:10:50;99176.38;;;17.21;100.00
48796;BME280;34607;48.520;-1.330;2023-08-01T19:13:17;99165.09;;;17.19;100.00
48796;BME280;34607;48.520;-1.330;2023-08-01T19:15:44;99157.34;;;17.16;100.00
48796;BME280;34607;48.520;-1.330;2023-08-01T19:18:11;99143.28;;;17.20;100.00
48796;BME280;34607;48.520;-1.330;2023-08-01T19:20:39;99147.72;;;17.17;100.00